Time;durP1;ratioP1;P1;durP2;ratioP2;P2;SDS_P1;SDS_P2;PMS_P1;PMS_P2;Temp;Humidity;BMP_temperature;BMP_pressure;BME280_temperature;BME280_humidity;BME280_pressure;Samples;Min_cycle;Max_cycle;Signal;HPM_P1;HPM_P2
2022/03/23 00:01:21;;;;;;;21.55;15.43;;;8.40;67.30;;;;;;5094926;28;20198;-68
2022/03/23 00:03:48;;;;;;;21.15;15.15;;;8.40;68.00;;;;;;5094629;28;20210;-67
2022/03/23 00:06:17;;;;;;;25.50;16.73;;;8.30;66.80;;;;;;5095094;28;20285;-68
2022/03/23 00:08:45;;;;;;;23.10;18.50;;;8.30;66.90;;;;;;5094866;28;20636;-68
2022/03/23 00:11:12;;;;;;;20.52;15.80;;;8.20;67.60;;;;;;5094676;28;20206;-68
2022/03/23 00:13:39;;;;;;;20.55;14.75;;;8.20;67.30;;;;;;5094755;28;20209;-68
2022/03/23 00:16:07;;;;;;;22.02;15.00;;;8.20;66.90;;;;;;5094564;28;20688;-67
2022/03/23 00:18:34;;;;;;;17.20;13.52;;;8.30;67.40;;;;;;5094371;28;20229;-68
2022/03/23 00:21:01;;;;;;;29.63;20.13;;;8.20;67.30;;;;;;5094618;28;20206;-69
2022/03/23 00:23:28;;;;;;;23.08;17.70;;;8.20;68.00;;;;;;5094483;28;20202;-69
2022/03/23 00:25:58;;;;;;;23.73;16.65;;;8.20;68.90;;;;;;5094115;28;20228;-69
2022/03/23 00:28:26;;;;;;;22.75;17.00;;;8.20;69.80;;;;;;5094258;28;20234;-69
2022/03/23 00:30:53;;;;;;;23.02;18.45;;;8.20;70.40;;;;;;5094199;28;20289;-68
2022/03/23 00:33:21;;;;;;;20.80;15.30;;;8.10;69.90;;;;;;5094173;28;20241;-68
2022/03/23 00:35:48;;;;;;;21.25;14.93;;;8.10;68.90;;;;;;5094202;28;20242;-68
2022/03/23 00:38:16;;;;;;;24.58;18.05;;;8.00;68.20;;;;;;5093999;28;20312;-67
2022/03/23 00:40:43;;;;;;;28.67;19.92;;;8.10;70.10;;;;;;5094076;28;20726;-68
2022/03/23 00:43:12;;;;;;;26.60;19.42;;;8.10;72.70;;;;;;5094301;28;20282;-67
2022/03/23 00:45:39;;;;;;;29.25;20.48;;;8.00;74.00;;;;;;5093801;28;20721;-67
2022/03/23 00:48:06;;;;;;;24.98;17.27;;;7.90;76.30;;;;;;5094093;28;20222;-67
2022/03/23 00:50:34;;;;;;;26.42;18.00;;;7.90;74.90;;;;;;5094015;28;20212;-67
2022/03/23 00:53:01;;;;;;;22.42;16.02;;;7.80;75.00;;;;;;5093878;28;20206;-65
2022/03/23 00:55:27;;;;;;;21.48;16.23;;;7.80;73.40;;;;;;5093995;28;20208;-67
2022/03/23 00:57:54;;;;;;;20.77;15.18;;;7.80;73.30;;;;;;5093689;28;20312;-66
2022/03/23 01:00:23;;;;;;;21.50;16.42;;;7.80;72.40;;;;;;5094087;28;20202;-67
2022/03/23 01:02:50;;;;;;;26.20;16.75;;;7.70;72.00;;;;;;5093916;28;20297;-67
2022/03/23 01:05:17;;;;;;;20.42;15.65;;;7.70;72.80;;;;;;5093595;28;20296;-67
2022/03/23 01:07:44;;;;;;;23.83;17.10;;;7.70;72.40;;;;;;5105403;28;20222;-67
2022/03/23 01:10:14;;;;;;;22.85;16.73;;;7.70;72.50;;;;;;5115173;27;20304;-67
2022/03/23 01:12:41;;;;;;;20.95;15.85;;;7.60;72.20;;;;;;5115339;28;20210;-67
2022/03/23 01:15:10;;;;;;;19.85;15.80;;;7.60;71.00;;;;;;5115171;28;20292;-67
2022/03/23 01:17:39;;;;;;;23.65;15.93;;;7.50;71.40;;;;;;5115214;27;20232;-67
2022/03/23 01:20:08;;;;;;;22.85;16.50;;;7.40;72.70;;;;;;5115261;27;20208;-67
2022/03/23 01:22:35;;;;;;;23.75;16.75;;;7.30;73.50;;;;;;5115199;28;20201;-66
2022/03/23 01:25:03;;;;;;;21.27;16.05;;;7.40;74.20;;;;;;5114980;28;20203;-67
2022/03/23 01:27:30;;;;;;;20.48;16.67;;;7.30;73.80;;;;;;5114793;28;20218;-67
2022/03/23 01:29:57;;;;;;;25.00;15.00;;;7.20;73.90;;;;;;5115098;28;20292;-67
2022/03/23 01:32:24;;;;;;;22.80;16.85;;;7.20;74.60;;;;;;5114784;28;20659;-67
2022/03/23 01:34:52;;;;;;;22.85;16.98;;;7.20;75.30;;;;;;5114826;28;20216;-67
2022/03/23 01:37:19;;;;;;;22.27;16.83;;;7.20;74.80;;;;;;5114018;28;20225;-66
2022/03/23 01:39:45;;;;;;;20.23;15.40;;;7.20;73.60;;;;;;5114557;28;20197;-67
2022/03/23 01:42:12;;;;;;;22.70;16.02;;;7.20;74.20;;;;;;5114801;28;20212;-66
2022/03/23 01:44:39;;;;;;;23.77;16.73;;;7.30;75.20;;;;;;5114943;28;20237;-67
2022/03/23 01:47:08;;;;;;;25.30;16.95;;;7.20;75.60;;;;;;5114462;28;20703;-67
2022/03/23 01:49:36;;;;;;;23.70;17.50;;;7.20;75.90;;;;;;5114781;28;20213;-67
2022/03/23 01:52:07;;;;;;;24.35;16.55;;;7.20;76.30;;;;;;5114645;28;20197;-67
2022/03/23 01:54:34;;;;;;;23.85;16.15;;;7.20;76.90;;;;;;5114665;28;20185;-67
2022/03/23 01:57:04;;;;;;;24.05;16.27;;;7.10;76.20;;;;;;5114624;28;20235;-67
2022/03/23 01:59:31;;;;;;;20.05;16.27;;;7.10;75.60;;;;;;5114563;28;20250;-67
2022/03/23 02:01:57;;;;;;;24.60;16.92;;;6.90;75.10;;;;;;5114351;28;20682;-66
2022/03/23 02:04:24;;;;;;;23.98;16.30;;;6.90;76.00;;;;;;5114144;28;20197;-67
2022/03/23 02:06:52;;;;;;;22.85;17.13;;;7.00;76.80;;;;;;5114298;28;20292;-66
2022/03/23 02:09:21;;;;;;;20.55;16.00;;;7.00;76.30;;;;;;5114395;28;20244;-67
2022/03/23 02:11:49;;;;;;;24.23;17.92;;;7.00;76.20;;;;;;5114352;28;20536;-67
2022/03/23 02:14:16;;;;;;;21.67;16.13;;;6.90;76.80;;;;;;5114146;28;20205;-67
2022/03/23 02:16:44;;;;;;;25.73;16.85;;;6.80;76.40;;;;;;5114288;28;20208;-67
2022/03/23 02:19:11;;;;;;;23.25;16.08;;;6.80;76.60;;;;;;5114278;28;20204;-67
2022/03/23 02:21:43;;;;;;;22.00;16.63;;;6.90;76.70;;;;;;5113934;28;20254;-67
2022/03/23 02:24:10;;;;;;;23.73;17.40;;;6.90;76.10;;;;;;5114031;28;20208;-67
2022/03/23 02:26:38;;;;;;;23.67;16.25;;;6.90;77.90;;;;;;5114054;28;20208;-66
2022/03/23 02:29:05;;;;;;;21.35;16.42;;;6.90;78.30;;;;;;5113970;28;20554;-66
2022/03/23 02:31:32;;;;;;;27.10;17.58;;;6.90;78.40;;;;;;5114026;28;20203;-67
2022/03/23 02:33:59;;;;;;;19.90;16.20;;;6.90;78.00;;;;;;5113970;28;20233;-66
2022/03/23 02:36:26;;;;;;;24.15;17.35;;;6.80;77.30;;;;;;5114071;28;20197;-67
2022/03/23 02:38:54;;;;;;;22.33;17.05;;;6.70;77.50;;;;;;5113951;28;20564;-67
2022/03/23 02:41:21;;;;;;;21.25;16.77;;;6.60;78.00;;;;;;5113841;28;20295;-67
2022/03/23 02:43:48;;;;;;;22.85;16.42;;;6.50;78.00;;;;;;5113767;28;20589;-67
2022/03/23 02:46:16;;;;;;;21.45;16.05;;;6.50;77.30;;;;;;5113928;28;20197;-67
2022/03/23 02:48:43;;;;;;;21.40;15.80;;;6.40;78.00;;;;;;5116551;28;20632;-67
2022/03/23 02:51:10;;;;;;;21.85;16.17;;;6.40;78.50;;;;;;5118346;27;20207;-67
2022/03/23 03:02:13;;;;;;;20.65;14.75;;;6.30;77.90;;;;;;5118319;28;20200;-67
2022/03/23 03:04:40;;;;;;;23.02;15.98;;;6.30;77.50;;;;;;5117827;28;20205;-67
2022/03/23 03:07:07;;;;;;;25.75;16.92;;;6.40;77.30;;;;;;5117758;27;20229;-67
2022/03/23 03:09:33;;;;;;;21.90;16.45;;;6.40;77.40;;;;;;5117822;28;20210;-66
2022/03/23 03:12:02;;;;;;;23.33;17.40;;;6.30;77.60;;;;;;5117816;27;20198;-66
2022/03/23 03:14:31;;;;;;;21.42;16.02;;;6.40;78.10;;;;;;5117566;28;20622;-67
2022/03/23 03:16:58;;;;;;;20.48;15.45;;;6.40;77.40;;;;;;5117575;28;20610;-66
2022/03/23 03:19:25;;;;;;;22.13;14.90;;;6.50;77.10;;;;;;5117656;28;20700;-67
2022/03/23 03:21:51;;;;;;;22.92;16.48;;;6.50;77.20;;;;;;5117482;28;20223;-67
2022/03/23 03:24:20;;;;;;;20.80;16.05;;;6.60;77.40;;;;;;5117380;28;20618;-66
2022/03/23 03:26:47;;;;;;;22.77;14.85;;;6.60;77.30;;;;;;5117422;28;20620;-67
2022/03/23 03:29:15;;;;;;;18.88;15.10;;;6.50;76.80;;;;;;5117158;28;20209;-66
2022/03/23 03:31:42;;;;;;;21.02;16.00;;;6.40;77.20;;;;;;5117280;28;20201;-66
2022/03/23 03:34:09;;;;;;;22.70;15.27;;;6.40;77.80;;;;;;5117030;28;20754;-66
2022/03/23 03:36:36;;;;;;;22.83;15.80;;;6.40;77.80;;;;;;5117504;28;20208;-66
2022/03/23 03:39:03;;;;;;;21.63;15.90;;;6.40;77.60;;;;;;5117522;28;20230;-67
2022/03/23 03:41:31;;;;;;;21.05;15.85;;;6.40;78.10;;;;;;5117458;28;20206;-67
2022/03/23 03:43:58;;;;;;;19.77;15.40;;;6.40;78.40;;;;;;5116875;28;20201;-66
2022/03/23 03:46:26;;;;;;;20.02;16.02;;;6.40;78.70;;;;;;5117101;28;20212;-67
2022/03/23 03:48:53;;;;;;;22.85;15.93;;;6.30;78.00;;;;;;5117000;28;20221;-66
2022/03/23 03:51:21;;;;;;;22.15;16.15;;;6.30;78.50;;;;;;5117245;27;20202;-66
2022/03/23 03:53:49;;;;;;;22.75;16.63;;;6.30;79.20;;;;;;5116844;28;20198;-66
2022/03/23 03:56:16;;;;;;;24.25;17.10;;;6.20;79.30;;;;;;5116796;28;20752;-66
2022/03/23 03:58:42;;;;;;;21.75;16.40;;;6.10;79.30;;;;;;5116546;28;20315;-66
2022/03/23 04:01:10;;;;;;;21.00;15.20;;;6.10;79.70;;;;;;5116346;28;20292;-66
2022/03/23 04:03:38;;;;;;;22.25;16.77;;;6.10;79.50;;;;;;5116513;28;20205;-67
2022/03/23 04:06:07;;;;;;;23.40;16.45;;;6.00;79.30;;;;;;5116760;28;20288;-66
2022/03/23 04:08:35;;;;;;;23.35;17.20;;;6.00;79.70;;;;;;5116356;28;20217;-66
2022/03/23 04:11:02;;;;;;;23.42;17.58;;;6.00;79.30;;;;;;5116663;28;20254;-66
2022/03/23 04:13:29;;;;;;;24.27;15.48;;;5.90;79.50;;;;;;5116443;28;20208;-67
2022/03/23 04:15:56;;;;;;;23.88;16.90;;;5.80;79.90;;;;;;5116444;28;20201;-67
2022/03/23 04:18:23;;;;;;;22.05;16.60;;;5.80;80.00;;;;;;5116129;28;20316;-66
2022/03/23 04:20:51;;;;;;;24.48;16.65;;;5.70;80.30;;;;;;5116497;28;20229;-66
2022/03/23 04:23:18;;;;;;;22.80;16.70;;;5.60;80.70;;;;;;5116253;28;20227;-67
2022/03/23 04:25:45;;;;;;;25.20;16.25;;;5.70;80.90;;;;;;5116582;28;20206;-66
2022/03/23 04:28:12;;;;;;;22.17;16.05;;;5.70;80.80;;;;;;5116124;28;20316;-66
2022/03/23 04:30:39;;;;;;;23.73;16.83;;;5.70;81.80;;;;;;5116045;28;20205;-66
2022/03/23 04:33:06;;;;;;;22.08;17.10;;;5.70;81.90;;;;;;5115790;28;20241;-67
2022/03/23 04:35:32;;;;;;;22.60;17.02;;;5.70;81.10;;;;;;5116181;28;20201;-66
2022/03/23 04:38:01;;;;;;;24.88;16.90;;;5.70;81.40;;;;;;5115749;28;20229;-66
2022/03/23 04:40:27;;;;;;;22.88;16.95;;;5.80;81.70;;;;;;5116127;28;20204;-66
2022/03/23 04:42:54;;;;;;;22.88;16.75;;;5.80;82.00;;;;;;5116078;28;20292;-66
2022/03/23 04:45:21;;;;;;;26.15;17.55;;;5.80;82.30;;;;;;5115854;28;20204;-66
2022/03/23 04:47:48;;;;;;;21.63;16.45;;;5.80;82.40;;;;;;5115969;28;20259;-66
2022/03/23 04:50:16;;;;;;;24.23;16.90;;;5.80;81.80;;;;;;5115724;28;20747;-66
2022/03/23 04:52:45;;;;;;;21.30;16.42;;;5.60;81.70;;;;;;5115823;28;20205;-66
2022/03/23 04:55:15;;;;;;;25.30;18.38;;;5.60;82.20;;;;;;5115672;28;20204;-66
2022/03/23 04:57:42;;;;;;;24.70;17.58;;;5.60;82.40;;;;;;5115639;28;20231;-66
2022/03/23 05:00:13;;;;;;;25.60;18.08;;;5.50;82.50;;;;;;5115740;28;20208;-66
2022/03/23 05:02:40;;;;;;;24.85;17.65;;;5.50;83.00;;;;;;5115693;28;20213;-66
2022/03/23 05:05:07;;;;;;;25.08;17.45;;;5.50;83.00;;;;;;5115762;28;20208;-66
2022/03/23 05:07:34;;;;;;;24.10;18.17;;;5.50;83.50;;;;;;5115371;28;20308;-66
2022/03/23 05:10:02;;;;;;;27.40;17.88;;;5.60;83.50;;;;;;5115607;28;20557;-66
2022/03/23 05:12:30;;;;;;;22.95;17.60;;;5.70;83.20;;;;;;5114270;28;20202;-67
2022/03/23 05:14:57;;;;;;;24.13;17.88;;;5.70;82.80;;;;;;5115242;27;20212;-66
2022/03/23 05:17:24;;;;;;;23.73;16.70;;;5.60;82.60;;;;;;5115244;27;20222;-66
2022/03/23 05:19:51;;;;;;;24.70;17.90;;;5.70;83.20;;;;;;5115335;27;20653;-66
2022/03/23 05:22:17;;;;;;;20.73;16.75;;;5.70;83.50;;;;;;5115273;28;20203;-66
2022/03/23 05:24:44;;;;;;;23.65;17.38;;;5.60;84.00;;;;;;5114761;28;20292;-66
2022/03/23 05:27:11;;;;;;;25.20;17.20;;;5.60;84.20;;;;;;5114848;28;20729;-67
2022/03/23 05:29:39;;;;;;;21.70;16.63;;;5.60;83.70;;;;;;5114871;28;20293;-66
2022/03/23 05:32:07;;;;;;;25.27;18.00;;;5.70;83.90;;;;;;5115060;28;20262;-66
2022/03/23 05:34:34;;;;;;;25.95;17.23;;;5.70;84.40;;;;;;5114716;27;20212;-66
2022/03/23 05:37:01;;;;;;;22.70;16.95;;;5.70;85.00;;;;;;5114875;28;20627;-66
2022/03/23 05:39:28;;;;;;;23.17;17.38;;;5.60;84.90;;;;;;5114841;28;20221;-66
2022/03/23 05:41:55;;;;;;;28.08;17.15;;;5.60;85.20;;;;;;5114893;28;20274;-66
2022/03/23 05:44:21;;;;;;;24.23;17.00;;;5.60;85.60;;;;;;5114674;28;20292;-66
2022/03/23 05:46:50;;;;;;;26.30;17.75;;;5.60;85.70;;;;;;5114585;28;20730;-66
2022/03/23 05:49:16;;;;;;;28.92;18.83;;;5.60;85.80;;;;;;5114808;28;20288;-66
2022/03/23 05:51:43;;;;;;;29.77;19.77;;;5.50;86.10;;;;;;5114440;28;20205;-67
2022/03/23 05:54:10;;;;;;;27.75;18.20;;;5.60;86.80;;;;;;5114388;28;20291;-66
2022/03/23 05:56:37;;;;;;;26.80;18.73;;;5.60;86.90;;;;;;5114622;28;20201;-66
2022/03/23 05:59:04;;;;;;;28.42;19.65;;;5.60;88.70;;;;;;5114552;28;20217;-67
2022/03/23 06:01:32;;;;;;;26.65;18.60;;;5.60;90.40;;;;;;5114535;28;20208;-66
2022/03/23 06:04:00;;;;;;;24.13;18.95;;;5.60;90.20;;;;;;5114471;28;20201;-66
2022/03/23 06:06:27;;;;;;;27.70;19.98;;;5.60;89.60;;;;;;5114349;28;20202;-66
2022/03/23 06:08:53;;;;;;;27.95;18.73;;;5.60;89.90;;;;;;5114405;28;20232;-66
2022/03/23 06:11:20;;;;;;;26.00;19.83;;;5.50;89.80;;;;;;5114177;28;20292;-66
2022/03/23 06:13:47;;;;;;;26.00;18.75;;;5.50;89.40;;;;;;5114096;28;20236;-66
2022/03/23 06:16:14;;;;;;;24.25;18.67;;;5.50;89.90;;;;;;5114313;28;20204;-66
2022/03/23 06:18:41;;;;;;;27.23;19.15;;;5.60;89.30;;;;;;5114237;28;20229;-66
2022/03/23 06:21:09;;;;;;;30.02;20.05;;;5.70;89.30;;;;;;5114229;28;20209;-67
2022/03/23 06:23:36;;;;;;;28.38;19.80;;;5.70;90.20;;;;;;5113476;28;20205;-66
2022/03/23 06:26:05;;;;;;;26.02;19.13;;;5.80;90.20;;;;;;5114065;28;20301;-67
2022/03/23 06:28:32;;;;;;;29.00;19.42;;;5.90;90.10;;;;;;5114022;28;20225;-66
2022/03/23 06:30:59;;;;;;;27.45;19.75;;;5.90;89.30;;;;;;5113980;28;20662;-67
2022/03/23 06:33:26;;;;;;;26.23;19.70;;;5.90;89.20;;;;;;5114236;28;20208;-65
2022/03/23 06:35:53;;;;;;;24.08;18.90;;;5.70;90.30;;;;;;5113814;28;20295;-66
2022/03/23 06:38:21;;;;;;;26.45;19.15;;;5.70;90.70;;;;;;5113665;28;20228;-66
2022/03/23 06:40:48;;;;;;;29.92;21.95;;;5.80;90.00;;;;;;5114070;28;20649;-67
2022/03/23 06:43:15;;;;;;;26.45;19.77;;;6.00;90.00;;;;;;5113710;28;20575;-67
2022/03/23 06:45:43;;;;;;;29.88;20.98;;;6.10;89.40;;;;;;5114023;28;20233;-66
2022/03/23 06:48:10;;;;;;;27.67;19.70;;;6.10;89.10;;;;;;5113712;28;20221;-66
2022/03/23 06:50:37;;;;;;;29.38;20.38;;;6.20;89.00;;;;;;5114014;28;20197;-66
2022/03/23 06:53:04;;;;;;;28.35;20.58;;;6.30;89.10;;;;;;5113761;28;20201;-67
2022/03/23 06:55:32;;;;;;;29.88;20.50;;;6.30;90.00;;;;;;5113932;28;20202;-66
2022/03/23 06:57:59;;;;;;;30.20;21.15;;;6.30;89.70;;;;;;5113775;28;20586;-67
2022/03/23 07:00:26;;;;;;;28.23;21.02;;;6.30;89.80;;;;;;5113548;28;20316;-67
2022/03/23 07:02:53;;;;;;;27.77;21.40;;;6.40;89.60;;;;;;5113844;28;20288;-66
2022/03/23 07:05:20;;;;;;;28.33;21.27;;;6.50;89.20;;;;;;5113425;28;20288;-66
2022/03/23 07:10:34;;;;;;;28.15;21.08;;;6.50;89.20;;;;;;5113789;28;20762;-66
2022/03/23 07:13:01;;;;;;;30.15;22.58;;;6.40;88.90;;;;;;5113545;28;20198;-66
2022/03/23 07:15:28;;;;;;;30.17;22.63;;;6.40;88.80;;;;;;5113707;28;20212;-66
2022/03/23 07:17:55;;;;;;;28.92;21.75;;;6.50;89.10;;;;;;5113942;28;20236;-67
2022/03/23 07:20:23;;;;;;;33.60;22.90;;;6.60;89.40;;;;;;5113425;28;20221;-67
2022/03/23 07:22:49;;;;;;;30.20;23.02;;;6.60;89.80;;;;;;5113686;28;20296;-66
2022/03/23 07:25:16;;;;;;;26.98;22.25;;;6.50;88.30;;;;;;5113544;28;20560;-67
2022/03/23 07:27:44;;;;;;;34.35;23.70;;;6.30;88.30;;;;;;5113411;28;20229;-66
2022/03/23 07:30:12;;;;;;;32.58;22.55;;;6.30;89.20;;;;;;5113638;28;20296;-67
2022/03/23 07:32:39;;;;;;;30.40;22.55;;;6.30;90.00;;;;;;5113577;28;20201;-66
2022/03/23 07:35:07;;;;;;;33.55;23.33;;;6.50;90.10;;;;;;5115013;28;20205;-67
2022/03/23 07:37:34;;;;;;;33.78;23.73;;;6.50;90.20;;;;;;5117142;28;20720;-67
2022/03/23 07:40:01;;;;;;;31.05;23.77;;;6.50;90.50;;;;;;5117261;28;20225;-67
2022/03/23 07:42:28;;;;;;;37.97;22.05;;;6.50;90.60;;;;;;5116984;28;20205;-67
2022/03/23 07:44:56;;;;;;;32.97;23.83;;;6.50;90.60;;;;;;5117025;28;20212;-67
2022/03/23 07:47:23;;;;;;;30.15;24.02;;;6.40;91.30;;;;;;5117142;28;20222;-67
2022/03/23 07:49:50;;;;;;;31.73;23.27;;;6.40;91.60;;;;;;5117188;28;20220;-66
2022/03/23 07:52:18;;;;;;;31.35;22.02;;;6.40;91.40;;;;;;5117031;27;20197;-66
2022/03/23 07:54:45;;;;;;;31.23;22.35;;;6.40;91.20;;;;;;5116599;28;20209;-66
2022/03/23 07:57:12;;;;;;;34.03;22.73;;;6.50;91.60;;;;;;5116970;28;20224;-67
2022/03/23 07:59:39;;;;;;;31.98;23.00;;;6.50;91.80;;;;;;5116791;28;20227;-67
2022/03/23 08:02:07;;;;;;;32.97;23.48;;;6.60;91.30;;;;;;5116808;28;20296;-67
2022/03/23 08:04:34;;;;;;;30.85;23.30;;;6.70;91.60;;;;;;5116638;28;20197;-67
2022/03/23 08:07:02;;;;;;;33.72;23.35;;;6.90;91.70;;;;;;5116718;27;20231;-67
2022/03/23 08:09:29;;;;;;;29.17;22.42;;;7.10;91.00;;;;;;5116420;28;20197;-66
2022/03/23 08:11:56;;;;;;;34.53;22.98;;;7.30;90.50;;;;;;5116682;28;20211;-66
2022/03/23 08:14:23;;;;;;;34.80;23.45;;;7.40;90.00;;;;;;5116495;28;20204;-67
2022/03/23 08:16:52;;;;;;;30.27;23.80;;;7.50;90.00;;;;;;5116461;28;20202;-67
2022/03/23 08:19:20;;;;;;;45.05;25.35;;;7.50;90.10;;;;;;5116226;28;20263;-66
2022/03/23 08:21:48;;;;;;;34.47;23.85;;;7.50;90.20;;;;;;5116450;28;20254;-67
2022/03/23 08:24:14;;;;;;;30.90;23.75;;;7.60;90.70;;;;;;5116278;28;20274;-67
2022/03/23 08:26:41;;;;;;;34.25;24.42;;;7.60;90.40;;;;;;5116307;28;20201;-67
2022/03/23 08:29:08;;;;;;;34.45;24.15;;;7.70;90.30;;;;;;5116067;28;20205;-67
2022/03/23 08:31:35;;;;;;;32.08;23.35;;;7.70;90.30;;;;;;5116309;28;20211;-67
2022/03/23 08:34:02;;;;;;;34.20;24.25;;;7.80;90.20;;;;;;5116009;28;20203;-66
2022/03/23 08:36:31;;;;;;;33.95;23.65;;;7.90;90.50;;;;;;5115873;28;20201;-66
2022/03/23 08:38:58;;;;;;;34.35;24.38;;;8.10;90.00;;;;;;5101040;27;20734;-67
2022/03/23 08:41:25;;;;;;;30.65;24.23;;;8.30;89.50;;;;;;5083407;28;20213;-67
2022/03/23 08:43:51;;;;;;;32.53;23.70;;;8.60;88.80;;;;;;5074008;28;20256;-68
2022/03/23 08:46:20;;;;;;;33.55;24.15;;;8.90;88.00;;;;;;5073897;28;20209;-68
2022/03/23 08:48:47;;;;;;;33.65;24.42;;;9.20;86.90;;;;;;5074156;28;20227;-68
2022/03/23 08:51:13;;;;;;;30.17;23.70;;;9.60;85.00;;;;;;5074194;28;20211;-68
2022/03/23 08:53:42;;;;;;;29.63;23.83;;;9.80;84.70;;;;;;5073766;28;20763;-68
2022/03/23 08:56:10;;;;;;;34.22;24.75;;;10.10;82.00;;;;;;5073803;28;20209;-69
2022/03/23 08:58:37;;;;;;;32.70;25.40;;;10.40;81.00;;;;;;5073956;28;20227;-68
2022/03/23 09:01:04;;;;;;;34.13;25.08;;;10.80;80.60;;;;;;5073703;28;20226;-68
2022/03/23 09:03:32;;;;;;;36.40;25.65;;;11.20;78.20;;;;;;5073985;28;20191;-68
2022/03/23 09:05:59;;;;;;;32.90;26.33;;;11.60;76.10;;;;;;5074253;28;20268;-68
2022/03/23 09:08:26;;;;;;;35.17;28.25;;;11.60;74.40;;;;;;5073949;28;20328;-68
2022/03/23 09:10:54;;;;;;;33.67;26.83;;;11.60;74.90;;;;;;5073949;28;20199;-68
2022/03/23 09:13:21;;;;;;;36.28;26.70;;;11.60;74.70;;;;;;5073898;28;20211;-68
2022/03/23 09:15:48;;;;;;;31.25;25.88;;;11.70;75.00;;;;;;5073424;28;20207;-68
2022/03/23 09:18:15;;;;;;;32.42;26.00;;;11.70;74.00;;;;;;5073559;28;20229;-68
2022/03/23 09:20:42;;;;;;;32.80;27.40;;;11.60;74.40;;;;;;5074595;28;20264;-68
2022/03/23 09:23:09;;;;;;;34.08;25.75;;;11.60;74.30;;;;;;5074683;28;20206;-68
2022/03/23 09:25:36;;;;;;;29.40;26.15;;;11.60;74.90;;;;;;5074594;28;20255;-67
2022/03/23 09:28:05;;;;;;;34.45;26.10;;;11.50;75.20;;;;;;5074125;28;20233;-68
2022/03/23 09:30:32;;;;;;;33.10;25.92;;;11.50;75.50;;;;;;5074212;28;20681;-67
2022/03/23 09:33:00;;;;;;;33.95;26.95;;;11.60;74.90;;;;;;5074234;28;20284;-68
2022/03/23 09:35:27;;;;;;;34.75;26.23;;;11.60;74.70;;;;;;5074285;28;20210;-68
2022/03/23 09:37:56;;;;;;;34.10;25.95;;;11.70;74.00;;;;;;5074591;28;20225;-67
2022/03/23 09:40:24;;;;;;;34.83;26.38;;;11.80;73.50;;;;;;5074275;28;20236;-68
2022/03/23 09:42:52;;;;;;;33.35;26.67;;;11.90;73.50;;;;;;5074258;28;20203;-68
2022/03/23 09:45:37;;;;;;;37.28;26.73;;;12.00;73.40;;;;;;5073974;28;20208;-68
2022/03/23 09:48:09;;;;;;;32.08;27.63;;;12.30;72.50;;;;;;5074156;28;20227;-68
2022/03/23 09:50:36;;;;;;;33.63;25.38;;;12.70;68.60;;;;;;5074152;28;20241;-68
2022/03/23 09:53:04;;;;;;;32.75;26.35;;;13.40;68.50;;;;;;5073887;28;20575;-68
2022/03/23 09:55:31;;;;;;;32.80;26.20;;;14.80;64.80;;;;;;5074486;28;20206;-68
2022/03/23 09:57:59;;;;;;;36.55;24.92;;;15.70;60.00;;;;;;5073378;28;20218;-68
2022/03/23 10:00:33;;;;;;;30.70;25.40;;;16.80;58.70;;;;;;5074180;28;20236;-68
2022/03/23 10:03:58;;;;;;;35.95;27.23;;;17.20;55.10;;;;;;5073837;28;20213;-69
2022/03/23 10:07:05;;;;;;;30.97;24.43;;;18.40;51.90;;;;;;5073975;28;20590;-68
2022/03/23 10:10:06;;;;;;;29.53;26.43;;;19.50;49.20;;;;;;5073645;28;20513;-68
2022/03/23 10:13:24;;;;;;;27.70;24.70;;;19.00;46.30;;;;;;5073942;28;20574;-69
2022/03/23 10:16:28;;;;;;;34.03;28.02;;;18.10;48.00;;;;;;5073688;28;20198;-68
2022/03/23 10:18:57;;;;;;;31.23;25.02;;;17.50;47.00;;;;;;5073453;28;20703;-68
2022/03/23 10:21:25;;;;;;;26.25;22.40;;;17.60;48.40;;;;;;5073660;28;20227;-68
2022/03/23 10:24:25;;;;;;;27.87;23.70;;;18.30;47.10;;;;;;5073477;28;20297;-68
2022/03/23 10:26:52;;;;;;;24.77;21.93;;;20.20;42.10;;;;;;5068729;28;20455;-69
2022/03/23 10:29:22;;;;;;;23.43;20.93;;;20.60;39.20;;;;;;5073405;28;20448;-68
2022/03/23 10:31:59;;;;;;;22.10;19.70;;;20.40;39.40;;;;;;5073604;28;20484;-69
2022/03/23 10:34:37;;;;;;;21.97;19.00;;;21.50;36.80;;;;;;5073314;28;21006;-69
2022/03/23 10:37:04;;;;;;;21.63;19.40;;;21.90;33.20;;;;;;5073653;28;20469;-68
2022/03/23 10:39:32;;;;;;;23.90;20.00;;;21.20;33.80;;;;;;5073190;28;20535;-68
2022/03/23 10:42:05;;;;;;;23.60;21.17;;;21.00;35.00;;;;;;5073532;28;20441;-68
2022/03/23 10:44:32;;;;;;;22.93;20.03;;;21.30;35.50;;;;;;5073234;28;20445;-68
2022/03/23 10:46:59;;;;;;;22.33;19.93;;;21.90;35.80;;;;;;5073248;28;20445;-69
2022/03/23 10:49:35;;;;;;;22.73;20.47;;;22.20;34.90;;;;;;5073495;28;20463;-69
2022/03/23 10:52:15;;;;;;;22.50;20.30;;;23.00;34.20;;;;;;5073386;28;20476;-67
2022/03/23 10:54:53;;;;;;;22.63;20.20;;;23.40;32.40;;;;;;5073279;28;20437;-67
2022/03/23 10:57:21;;;;;;;22.20;20.00;;;23.50;31.60;;;;;;5073123;28;20521;-67
2022/03/23 10:59:48;;;;;;;22.40;20.30;;;23.00;31.10;;;;;;5073507;28;20487;-69
2022/03/23 11:02:16;;;;;;;21.77;19.47;;;23.80;32.10;;;;;;5073298;28;20436;-69
2022/03/23 11:04:50;;;;;;;23.47;21.20;;;24.50;33.60;;;;;;5073273;28;20448;-69
2022/03/23 11:07:25;;;;;;;22.97;20.53;;;24.80;31.60;;;;;;5073210;28;20526;-69
2022/03/23 11:18:09;;;;;;;23.87;21.53;;;27.00;29.50;;;;;;5076985;28;20474;-69
2022/03/23 11:20:49;;;;;;;27.10;23.27;;;27.00;27.30;;;;;;5077672;28;20574;-67
2022/03/23 11:23:22;;;;;;;23.43;21.23;;;27.10;27.20;;;;;;5077038;28;20957;-67
2022/03/23 11:25:50;;;;;;;23.27;20.50;;;27.00;27.60;;;;;;5077132;28;20789;-67
2022/03/23 11:28:18;;;;;;;23.33;21.03;;;27.80;27.30;;;;;;5076955;28;20476;-68
2022/03/23 11:30:46;;;;;;;21.47;19.63;;;27.00;26.00;;;;;;5077434;28;20444;-69
2022/03/23 11:33:16;;;;;;;20.57;18.70;;;28.00;27.00;;;;;;5076697;28;20456;-67
2022/03/23 11:35:47;;;;;;;20.80;18.90;;;29.00;26.30;;;;;;5076734;28;20432;-69
2022/03/23 11:38:17;;;;;;;20.83;18.80;;;28.20;25.70;;;;;;5076735;28;20815;-68
2022/03/23 11:40:45;;;;;;;21.10;19.30;;;28.10;25.70;;;;;;5076693;28;20439;-68
2022/03/23 11:43:13;;;;;;;21.23;19.23;;;28.90;25.00;;;;;;5076441;28;20441;-67
2022/03/23 11:45:41;;;;;;;22.00;19.90;;;27.80;24.40;;;;;;5076528;28;20433;-68
2022/03/23 11:48:15;;;;;;;21.40;19.30;;;25.70;25.60;;;;;;5076473;28;20495;-67
2022/03/23 11:50:55;;;;;;;20.23;18.20;;;24.20;27.50;;;;;;5076397;28;20475;-67
2022/03/23 11:53:34;;;;;;;18.70;16.90;;;23.80;28.20;;;;;;5076336;28;20963;-67
2022/03/23 11:56:02;;;;;;;17.43;15.73;;;23.40;28.00;;;;;;5076305;28;20929;-67
2022/03/23 11:58:39;;;;;;;17.10;15.50;;;23.90;28.00;;;;;;5076006;28;20465;-67
2022/03/23 12:01:11;;;;;;;16.30;14.80;;;24.50;27.20;;;;;;5076747;28;20433;-67
2022/03/23 12:03:53;;;;;;;18.03;16.10;;;24.70;25.80;;;;;;5075798;28;20930;-67
2022/03/23 12:06:22;;;;;;;17.40;15.80;;;24.20;26.20;;;;;;5076086;28;20444;-67
2022/03/23 12:08:52;;;;;;;17.80;16.10;;;24.10;27.10;;;;;;5075791;28;20834;-67
2022/03/23 12:11:50;;;;;;;18.10;16.30;;;24.30;27.90;;;;;;5075997;28;20513;-67
2022/03/23 12:14:28;;;;;;;19.93;18.10;;;23.80;27.70;;;;;;5075702;28;20439;-67
2022/03/23 12:17:17;;;;;;;19.17;17.10;;;23.10;27.60;;;;;;5075881;28;20481;-67
2022/03/23 12:20:00;;;;;;;17.50;15.70;;;22.30;28.30;;;;;;5076151;28;20445;-67
2022/03/23 12:22:56;;;;;;;16.47;14.77;;;21.80;28.50;;;;;;5075786;28;20499;-67
2022/03/23 12:25:30;;;;;;;15.93;14.30;;;21.00;27.40;;;;;;5075783;28;20443;-67
2022/03/23 12:28:16;;;;;;;15.67;14.07;;;20.40;28.20;;;;;;5075355;28;20515;-68
2022/03/23 12:31:00;;;;;;;17.23;15.43;;;20.20;29.20;;;;;;5075666;28;20479;-67
2022/03/23 12:33:28;;;;;;;17.00;15.30;;;20.20;29.70;;;;;;5075429;28;20446;-67
2022/03/23 12:36:00;;;;;;;19.77;17.23;;;20.00;29.90;;;;;;5075472;28;20805;-67
2022/03/23 12:38:29;;;;;;;17.98;16.17;;;19.40;30.00;;;;;;5075545;28;20478;-67
2022/03/23 12:41:02;;;;;;;18.83;16.83;;;19.20;30.70;;;;;;5075518;28;20205;-68
2022/03/23 12:43:37;;;;;;;18.97;15.50;;;19.30;31.30;;;;;;5075524;28;20461;-67
2022/03/23 12:46:07;;;;;;;18.40;16.40;;;19.40;31.80;;;;;;5075481;28;20450;-67
2022/03/23 13:00:09;;;;;;;16.67;14.77;;;19.50;31.70;;;;;;5067666;28;20214;-67
2022/03/23 13:02:36;;;;;;;17.67;15.90;;;19.70;31.70;;;;;;5074973;28;20451;-67
2022/03/23 13:05:06;;;;;;;17.53;15.73;;;19.70;31.50;;;;;;5074819;28;20538;-67
2022/03/23 13:07:42;;;;;;;17.80;16.00;;;19.70;31.30;;;;;;5074600;28;20463;-67
2022/03/23 13:10:11;;;;;;;18.07;16.27;;;19.60;30.90;;;;;;5074740;28;20529;-67
2022/03/23 13:12:41;;;;;;;17.53;15.77;;;19.40;30.90;;;;;;5074871;28;20545;-67
2022/03/23 13:15:13;;;;;;;18.20;16.43;;;19.40;31.90;;;;;;5074651;28;20438;-67